sensor_id;sensor_type;location;lat;lon;timestamp;pressure;altitude;pressure_sealevel;temperature;humidity
64792;BME280;51226;47.504;19.074;2023-02-22T00:01:20;100218.78;;;10.79;60.34
64792;BME280;51226;47.504;19.074;2023-02-22T00:04:53;100213.66;;;10.82;60.40
64792;BME280;51226;47.504;19.074;2023-02-22T00:07:56;100210.13;;;10.80;60.37
64792;BME280;51226;47.504;19.074;2023-02-22T00:11:02;100212.91;;;10.84;60.31
64792;BME280;51226;47.504;19.074;2023-02-22T00:14:05;100211.62;;;10.73;61.08
64792;BME280;51226;47.504;19.074;2023-02-22T00:17:08;100214.13;;;10.70;61.07
64792;BME280;51226;47.504;19.074;2023-02-22T00:20:12;100220.22;;;10.70;61.10
64792;BME280;51226;47.504;19.074;2023-02-22T00:23:19;100230.66;;;10.70;61.30
64792;BME280;51226;47.504;19.074;2023-02-22T00:26:22;100224.63;;;10.71;60.99
64792;BME280;51226;47.504;19.074;2023-02-22T00:29:25;100221.03;;;10.68;61.13
64792;BME280;51226;47.504;19.074;2023-02-22T00:32:28;100223.53;;;10.65;61.10
64792;BME280;51226;47.504;19.074;2023-02-22T00:35:31;100228.78;;;10.66;61.10
64792;BME280;51226;47.504;19.074;2023-02-22T00:38:34;100223.53;;;10.65;61.02
64792;BME280;51226;47.504;19.074;2023-02-22T00:41:37;100229.78;;;10.70;60.74
64792;BME280;51226;47.504;19.074;2023-02-22T00:44:39;100233.63;;;10.55;61.37
64792;BME280;51226;47.504;19.074;2023-02-22T00:47:43;100228.47;;;10.57;61.37
64792;BME280;51226;47.504;19.074;2023-02-22T00:50:49;100236.09;;;10.51;61.68
64792;BME280;51226;47.504;19.074;2023-02-22T00:53:52;100235.97;;;10.48;62.02
64792;BME280;51226;47.504;19.074;2023-02-22T00:56:55;100241.94;;;10.45;61.94
64792;BME280;51226;47.504;19.074;2023-02-22T01:00:04;100233.94;;;10.39;62.14
64792;BME280;51226;47.504;19.074;2023-02-22T01:03:15;100229.53;;;10.38;62.36
64792;BME280;51226;47.504;19.074;2023-02-22T01:06:19;100231.19;;;10.36;62.42
64792;BME280;51226;47.504;19.074;2023-02-22T01:09:22;100227.69;;;10.35;62.67
64792;BME280;51226;47.504;19.074;2023-02-22T01:12:27;100223.28;;;10.33;62.50
64792;BME280;51226;47.504;19.074;2023-02-22T01:15:29;100225.94;;;10.34;62.57
64792;BME280;51226;47.504;19.074;2023-02-22T01:18:34;100227.09;;;10.43;62.31
64792;BME280;51226;47.504;19.074;2023-02-22T01:21:39;100220.03;;;10.40;62.48
64792;BME280;51226;47.504;19.074;2023-02-22T01:24:42;100226.00;;;10.36;62.81
64792;BME280;51226;47.504;19.074;2023-02-22T01:27:45;100227.75;;;10.37;62.81
64792;BME280;51226;47.504;19.074;2023-02-22T01:30:48;100233.31;;;10.46;62.44
64792;BME280;51226;47.504;19.074;2023-02-22T01:33:51;100229.75;;;10.44;62.73
64792;BME280;51226;47.504;19.074;2023-02-22T01:36:54;100222.12;;;10.50;62.56
64792;BME280;51226;47.504;19.074;2023-02-22T01:39:57;100216.94;;;10.50;62.53
64792;BME280;51226;47.504;19.074;2023-02-22T01:43:24;100213.50;;;10.51;62.64
64792;BME280;51226;47.504;19.074;2023-02-22T01:46:25;100215.28;;;10.52;62.74
64792;BME280;51226;47.504;19.074;2023-02-22T01:49:39;100208.44;;;10.56;62.50
64792;BME280;51226;47.504;19.074;2023-02-22T01:52:43;100213.59;;;10.54;62.66
64792;BME280;51226;47.504;19.074;2023-02-22T01:55:46;100203.88;;;10.50;62.54
64792;BME280;51226;47.504;19.074;2023-02-22T01:58:54;100216.03;;;10.50;62.64
64792;BME280;51226;47.504;19.074;2023-02-22T02:01:59;100208.22;;;10.50;62.65
64792;BME280;51226;47.504;19.074;2023-02-22T02:05:02;100209.22;;;10.53;62.55
64792;BME280;51226;47.504;19.074;2023-02-22T02:08:19;100208.06;;;10.45;62.62
64792;BME280;51226;47.504;19.074;2023-02-22T02:11:24;100213.06;;;10.39;63.02
64792;BME280;51226;47.504;19.074;2023-02-22T02:14:28;100206.00;;;10.36;63.03
64792;BME280;51226;47.504;19.074;2023-02-22T02:17:33;100210.28;;;10.34;63.24
64792;BME280;51226;47.504;19.074;2023-02-22T02:27:13;100207.06;;;10.42;63.19
64792;BME280;51226;47.504;19.074;2023-02-22T02:30:31;100204.62;;;10.46;63.35
64792;BME280;51226;47.504;19.074;2023-02-22T02:33:55;100205.38;;;10.44;63.26
64792;BME280;51226;47.504;19.074;2023-02-22T02:37:11;100208.91;;;10.44;63.29
64792;BME280;51226;47.504;19.074;2023-02-22T02:40:29;100202.84;;;10.45;63.36
64792;BME280;51226;47.504;19.074;2023-02-22T02:43:50;100209.91;;;10.48;63.41
64792;BME280;51226;47.504;19.074;2023-02-22T02:47:00;100206.31;;;10.44;63.52
64792;BME280;51226;47.504;19.074;2023-02-22T02:50:23;100213.37;;;10.48;63.41
64792;BME280;51226;47.504;19.074;2023-02-22T02:53:37;100209.84;;;10.46;63.31
64792;BME280;51226;47.504;19.074;2023-02-22T02:56:41;100215.22;;;10.51;63.26
64792;BME280;51226;47.504;19.074;2023-02-22T02:59:47;100216.81;;;10.47;63.27
64792;BME280;51226;47.504;19.074;2023-02-22T03:03:12;100212.56;;;10.49;63.25
64792;BME280;51226;47.504;19.074;2023-02-22T03:16:47;100209.84;;;10.46;63.29
64792;BME280;51226;47.504;19.074;2023-02-22T03:19:59;100213.16;;;10.42;63.54
64792;BME280;51226;47.504;19.074;2023-02-22T03:23:11;100213.16;;;10.42;63.77
64792;BME280;51226;47.504;19.074;2023-02-22T03:26:23;100214.00;;;10.41;63.68
64792;BME280;51226;47.504;19.074;2023-02-22T03:29:31;100212.22;;;10.40;63.79
64792;BME280;51226;47.504;19.074;2023-02-22T03:32:40;100215.75;;;10.42;63.63
64792;BME280;51226;47.504;19.074;2023-02-22T03:35:49;100206.31;;;10.44;63.61
64792;BME280;51226;47.504;19.074;2023-02-22T03:39:00;100216.00;;;10.48;63.56
64792;BME280;51226;47.504;19.074;2023-02-22T03:42:14;100219.66;;;10.53;63.44
64792;BME280;51226;47.504;19.074;2023-02-22T03:45:20;100211.94;;;10.56;63.54
64792;BME280;51226;47.504;19.074;2023-02-22T03:48:46;100211.13;;;10.57;63.50
64792;BME280;51226;47.504;19.074;2023-02-22T03:51:51;100217.91;;;10.54;63.57
64792;BME280;51226;47.504;19.074;2023-02-22T03:54:55;100208.59;;;10.61;63.43
64792;BME280;51226;47.504;19.074;2023-02-22T03:57:59;100217.16;;;10.56;63.81
64792;BME280;51226;47.504;19.074;2023-02-22T04:01:05;100220.81;;;10.62;63.31
64792;BME280;51226;47.504;19.074;2023-02-22T04:04:08;100226.94;;;10.64;63.41
64792;BME280;51226;47.504;19.074;2023-02-22T04:07:11;100223.41;;;10.62;63.46
64792;BME280;51226;47.504;19.074;2023-02-22T04:10:15;100231.97;;;10.57;63.75
64792;BME280;51226;47.504;19.074;2023-02-22T04:13:18;100238.13;;;10.60;64.11
64792;BME280;51226;47.504;19.074;2023-02-22T04:16:22;100243.47;;;10.63;63.75
64792;BME280;51226;47.504;19.074;2023-02-22T04:19:25;100231.53;;;10.69;63.31
64792;BME280;51226;47.504;19.074;2023-02-22T04:22:28;100230.59;;;10.69;63.42
64792;BME280;51226;47.504;19.074;2023-02-22T04:25:31;100234.78;;;10.64;63.62
64792;BME280;51226;47.504;19.074;2023-02-22T04:28:39;100230.66;;;10.70;63.27
64792;BME280;51226;47.504;19.074;2023-02-22T04:31:42;100236.69;;;10.68;63.42
64792;BME280;51226;47.504;19.074;2023-02-22T04:34:46;100235.12;;;10.73;63.19
64792;BME280;51226;47.504;19.074;2023-02-22T04:37:49;100231.28;;;10.63;63.74
64792;BME280;51226;47.504;19.074;2023-02-22T04:40:54;100236.41;;;10.60;63.76
64792;BME280;51226;47.504;19.074;2023-02-22T04:43:56;100225.91;;;10.59;63.70
64792;BME280;51226;47.504;19.074;2023-02-22T04:47:00;100228.47;;;10.57;63.86
64792;BME280;51226;47.504;19.074;2023-02-22T04:50:07;100236.03;;;10.49;64.11
64792;BME280;51226;47.504;19.074;2023-02-22T04:53:10;100236.69;;;10.44;64.28
64792;BME280;51226;47.504;19.074;2023-02-22T04:56:16;100249.00;;;10.48;64.15
64792;BME280;51226;47.504;19.074;2023-02-22T04:59:20;100246.91;;;10.37;64.50
64792;BME280;51226;47.504;19.074;2023-02-22T05:02:27;100246.78;;;10.34;64.76
64792;BME280;51226;47.504;19.074;2023-02-22T05:05:30;100254.56;;;10.33;65.00
64792;BME280;51226;47.504;19.074;2023-02-22T05:08:32;100250.28;;;10.35;64.77
64792;BME280;51226;47.504;19.074;2023-02-22T05:11:35;100247.59;;;10.33;65.03
64792;BME280;51226;47.504;19.074;2023-02-22T05:14:38;100245.34;;;10.43;64.56
64792;BME280;51226;47.504;19.074;2023-02-22T05:17:41;100238.19;;;10.37;64.94
64792;BME280;51226;47.504;19.074;2023-02-22T05:20:44;100247.72;;;10.36;64.93
64792;BME280;51226;47.504;19.074;2023-02-22T05:23:47;100249.88;;;10.48;64.61
64792;BME280;51226;47.504;19.074;2023-02-22T05:26:49;100250.63;;;10.44;64.72
64792;BME280;51226;47.504;19.074;2023-02-22T05:29:56;100264.31;;;10.38;65.10
64792;BME280;51226;47.504;19.074;2023-02-22T05:32:59;100262.88;;;10.47;64.62
64792;BME280;51226;47.504;19.074;2023-02-22T05:36:02;100261.00;;;10.43;64.90
64792;BME280;51226;47.504;19.074;2023-02-22T05:39:05;100259.81;;;10.34;65.06
64792;BME280;51226;47.504;19.074;2023-02-22T05:42:08;100260.50;;;10.30;65.19
64792;BME280;51226;47.504;19.074;2023-02-22T05:45:15;100271.66;;;10.26;65.30
64792;BME280;51226;47.504;19.074;2023-02-22T05:48:18;100275.13;;;10.27;65.30
64792;BME280;51226;47.504;19.074;2023-02-22T05:51:23;100285.38;;;10.22;65.61
64792;BME280;51226;47.504;19.074;2023-02-22T05:54:26;100282.69;;;10.19;65.49
64792;BME280;51226;47.504;19.074;2023-02-22T05:57:29;100293.88;;;10.16;65.70
64792;BME280;51226;47.504;19.074;2023-02-22T06:00:33;100293.88;;;10.16;65.64
64792;BME280;51226;47.504;19.074;2023-02-22T06:03:35;100299.75;;;10.11;65.96
64792;BME280;51226;47.504;19.074;2023-02-22T06:06:38;100312.72;;;10.09;66.31
64792;BME280;51226;47.504;19.074;2023-02-22T06:09:41;100309.25;;;10.10;66.41
64792;BME280;51226;47.504;19.074;2023-02-22T06:12:45;100312.50;;;10.27;65.69
64792;BME280;51226;47.504;19.074;2023-02-22T06:15:48;100324.09;;;10.34;65.57
64792;BME280;51226;47.504;19.074;2023-02-22T06:18:51;100322.66;;;10.42;65.56
64792;BME280;51226;47.504;19.074;2023-02-22T06:21:56;100321.28;;;10.52;65.30
64792;BME280;51226;47.504;19.074;2023-02-22T06:25:02;100327.12;;;10.69;64.60
64792;BME280;51226;47.504;19.074;2023-02-22T06:28:05;100323.91;;;10.76;64.38
64792;BME280;51226;47.504;19.074;2023-02-22T06:31:11;100324.28;;;10.87;64.17
64792;BME280;51226;47.504;19.074;2023-02-22T06:34:14;100328.94;;;10.96;63.75
64792;BME280;51226;47.504;19.074;2023-02-22T06:37:17;100336.00;;;10.98;63.70
64792;BME280;51226;47.504;19.074;2023-02-22T06:40:20;100328.94;;;11.20;62.92
64792;BME280;51226;47.504;19.074;2023-02-22T06:43:23;100335.03;;;11.20;63.28
64792;BME280;51226;47.504;19.074;2023-02-22T06:46:27;100332.81;;;11.32;62.53
64792;BME280;51226;47.504;19.074;2023-02-22T06:49:30;100334.94;;;11.43;62.32
64792;BME280;51226;47.504;19.074;2023-02-22T06:52:33;100330.94;;;11.54;61.76
64792;BME280;51226;47.504;19.074;2023-02-22T06:55:36;100334.75;;;11.64;61.39
64792;BME280;51226;47.504;19.074;2023-02-22T06:58:38;100324.16;;;11.86;60.69
64792;BME280;51226;47.504;19.074;2023-02-22T07:01:42;100328.97;;;12.00;60.17
64792;BME280;51226;47.504;19.074;2023-02-22T07:04:45;100327.59;;;12.13;59.94
64792;BME280;51226;47.504;19.074;2023-02-22T07:07:49;100329.53;;;12.18;59.95
64792;BME280;51226;47.504;19.074;2023-02-22T07:10:52;100322.22;;;12.37;59.20
64792;BME280;51226;47.504;19.074;2023-02-22T07:13:55;100320.41;;;12.34;59.40
64792;BME280;51226;47.504;19.074;2023-02-22T07:16:58;100325.81;;;12.40;59.27
64792;BME280;51226;47.504;19.074;2023-02-22T07:20:01;100327.59;;;12.41;59.42
64792;BME280;51226;47.504;19.074;2023-02-22T07:23:05;100334.78;;;12.49;58.96
64792;BME280;51226;47.504;19.074;2023-02-22T07:26:07;100339.44;;;12.59;58.51
64792;BME280;51226;47.504;19.074;2023-02-22T07:29:10;100336.00;;;12.60;59.27
64792;BME280;51226;47.504;19.074;2023-02-22T07:32:13;100331.97;;;12.71;58.57
64792;BME280;51226;47.504;19.074;2023-02-22T07:35:18;100335.00;;;12.87;58.52
64792;BME280;51226;47.504;19.074;2023-02-22T07:38:21;100335.78;;;13.16;57.76
64792;BME280;51226;47.504;19.074;2023-02-22T07:41:24;100325.09;;;13.40;56.87
64792;BME280;51226;47.504;19.074;2023-02-22T07:44:27;100329.09;;;13.61;56.33
64792;BME280;51226;47.504;19.074;2023-02-22T07:47:30;100326.97;;;13.81;55.47
64792;BME280;51226;47.504;19.074;2023-02-22T07:50:34;100330.31;;;14.12;54.84
64792;BME280;51226;47.504;19.074;2023-02-22T07:53:37;100333.97;;;14.59;53.55
64792;BME280;51226;47.504;19.074;2023-02-22T07:56:47;100327.28;;;15.21;52.54
64792;BME280;51226;47.504;19.074;2023-02-22T07:59:50;100322.56;;;16.71;48.24
64792;BME280;51226;47.504;19.074;2023-02-22T08:02:53;100331.13;;;18.54;44.27
64792;BME280;51226;47.504;19.074;2023-02-22T08:05:56;100325.25;;;19.74;39.79
64792;BME280;51226;47.504;19.074;2023-02-22T08:09:02;100320.84;;;20.11;38.64
64792;BME280;51226;47.504;19.074;2023-02-22T08:12:05;100324.69;;;21.33;36.97
64792;BME280;51226;47.504;19.074;2023-02-22T08:15:15;100315.19;;;24.02;32.27
64792;BME280;51226;47.504;19.074;2023-02-22T08:18:20;100309.47;;;25.47;29.08
64792;BME280;51226;47.504;19.074;2023-02-22T08:21:23;100315.72;;;25.07;29.65
64792;BME280;51226;47.504;19.074;2023-02-22T08:24:26;100313.25;;;26.09;28.44
64792;BME280;51226;47.504;19.074;2023-02-22T08:27:29;100316.62;;;26.78;27.56
64792;BME280;51226;47.504;19.074;2023-02-22T08:30:33;100314.34;;;26.95;27.26
64792;BME280;51226;47.504;19.074;2023-02-22T08:33:37;100318.16;;;27.16;26.69
64792;BME280;51226;47.504;19.074;2023-02-22T08:36:41;100305.41;;;27.51;26.38
64792;BME280;51226;47.504;19.074;2023-02-22T08:39:44;100310.31;;;27.65;26.54
64792;BME280;51226;47.504;19.074;2023-02-22T08:42:47;100311.03;;;27.15;26.50
64792;BME280;51226;47.504;19.074;2023-02-22T08:45:49;100324.78;;;26.11;27.23
64792;BME280;51226;47.504;19.074;2023-02-22T08:48:53;100317.75;;;24.55;29.42
64792;BME280;51226;47.504;19.074;2023-02-22T08:51:56;100322.44;;;23.41;31.00
64792;BME280;51226;47.504;19.074;2023-02-22T08:55:00;100313.44;;;22.87;32.11
64792;BME280;51226;47.504;19.074;2023-02-22T08:58:05;100318.47;;;22.41;32.70
64792;BME280;51226;47.504;19.074;2023-02-22T09:01:11;100325.53;;;22.38;32.78
64792;BME280;51226;47.504;19.074;2023-02-22T09:04:17;100327.72;;;21.99;33.78
64792;BME280;51226;47.504;19.074;2023-02-22T09:07:19;100322.59;;;21.79;33.58
64792;BME280;51226;47.504;19.074;2023-02-22T09:10:25;100323.06;;;21.12;35.08
64792;BME280;51226;47.504;19.074;2023-02-22T09:13:29;100324.22;;;20.53;35.72
64792;BME280;51226;47.504;19.074;2023-02-22T09:16:32;100325.28;;;19.82;37.71
64792;BME280;51226;47.504;19.074;2023-02-22T09:19:35;100326.13;;;19.27;38.70
64792;BME280;51226;47.504;19.074;2023-02-22T09:22:38;100326.06;;;19.13;38.56
64792;BME280;51226;47.504;19.074;2023-02-22T09:25:42;100321.69;;;19.12;38.73
64792;BME280;51226;47.504;19.074;2023-02-22T09:28:44;100323.38;;;18.94;39.26
64792;BME280;51226;47.504;19.074;2023-02-22T09:31:49;100328.63;;;18.82;39.05
64792;BME280;51226;47.504;19.074;2023-02-22T09:34:52;100329.41;;;18.56;39.76
64792;BME280;51226;47.504;19.074;2023-02-22T09:37:57;100319.53;;;18.20;40.42
64792;BME280;51226;47.504;19.074;2023-02-22T09:41:14;100317.69;;;18.03;40.97
64792;BME280;51226;47.504;19.074;2023-02-22T09:47:47;100324.81;;;18.18;41.53
64792;BME280;51226;47.504;19.074;2023-02-22T09:50:52;100322.88;;;17.89;42.12
64792;BME280;51226;47.504;19.074;2023-02-22T09:54:03;100319.88;;;17.48;43.14
64792;BME280;51226;47.504;19.074;2023-02-22T09:57:11;100325.66;;;17.11;43.63
64792;BME280;51226;47.504;19.074;2023-02-22T10:00:19;100326.38;;;16.95;44.56
64792;BME280;51226;47.504;19.074;2023-02-22T10:10:16;100328.19;;;17.00;44.45
64792;BME280;51226;47.504;19.074;2023-02-22T10:13:30;100322.00;;;16.98;44.60
64792;BME280;51226;47.504;19.074;2023-02-22T10:16:44;100318.72;;;17.19;44.15
64792;BME280;51226;47.504;19.074;2023-02-22T10:26:28;100316.22;;;17.35;43.25
64792;BME280;51226;47.504;19.074;2023-02-22T10:29:39;100303.88;;;17.29;43.39
64792;BME280;51226;47.504;19.074;2023-02-22T10:32:44;100301.53;;;17.63;42.61
64792;BME280;51226;47.504;19.074;2023-02-22T10:35:50;100300.53;;;17.50;43.23
64792;BME280;51226;47.504;19.074;2023-02-22T10:39:01;100293.53;;;17.51;42.86
64792;BME280;51226;47.504;19.074;2023-02-22T10:42:12;100299.59;;;17.42;43.51
64792;BME280;51226;47.504;19.074;2023-02-22T10:48:25;100302.84;;;17.13;44.52
64792;BME280;51226;47.504;19.074;2023-02-22T10:51:28;100294.75;;;16.95;44.07
64792;BME280;51226;47.504;19.074;2023-02-22T10:54:38;100297.03;;;16.67;44.80
64792;BME280;51226;47.504;19.074;2023-02-22T10:57:46;100295.69;;;16.28;45.59
64792;BME280;51226;47.504;19.074;2023-02-22T11:00:51;100295.03;;;15.82;47.10
64792;BME280;51226;47.504;19.074;2023-02-22T11:04:01;100288.59;;;15.64;47.90
64792;BME280;51226;47.504;19.074;2023-02-22T11:10:10;100282.16;;;15.44;48.01
64792;BME280;51226;47.504;19.074;2023-02-22T11:19:31;100280.81;;;15.17;49.39
64792;BME280;51226;47.504;19.074;2023-02-22T11:22:40;100281.63;;;15.14;49.78
64792;BME280;51226;47.504;19.074;2023-02-22T11:25:44;100276.53;;;15.22;49.68
64792;BME280;51226;47.504;19.074;2023-02-22T11:28:48;100274.66;;;15.16;49.87
64792;BME280;51226;47.504;19.074;2023-02-22T11:31:52;100270.31;;;15.17;49.66
64792;BME280;51226;47.504;19.074;2023-02-22T11:38:32;100270.81;;;14.96;50.47
64792;BME280;51226;47.504;19.074;2023-02-22T11:41:35;100270.63;;;14.85;50.63
64792;BME280;51226;47.504;19.074;2023-02-22T11:44:38;100267.87;;;14.79;51.00
64792;BME280;51226;47.504;19.074;2023-02-22T11:54:22;100266.09;;;14.78;50.59
64792;BME280;51226;47.504;19.074;2023-02-22T12:00:50;100270.38;;;14.30;51.78
64792;BME280;51226;47.504;19.074;2023-02-22T12:20:58;100258.91;;;13.85;53.05
64792;BME280;51226;47.504;19.074;2023-02-22T12:24:06;100260.41;;;13.74;53.60
64792;BME280;51226;47.504;19.074;2023-02-22T12:27:21;100256.06;;;13.76;54.18
64792;BME280;51226;47.504;19.074;2023-02-22T12:30:36;100257.84;;;13.77;54.05
64792;BME280;51226;47.504;19.074;2023-02-22T12:34:04;100259.44;;;13.70;54.69
64792;BME280;51226;47.504;19.074;2023-02-22T12:41:24;100250.03;;;13.79;54.16
64792;BME280;51226;47.504;19.074;2023-02-22T12:44:34;100251.78;;;13.80;54.25
64792;BME280;51226;47.504;19.074;2023-02-22T12:47:46;100247.09;;;13.65;54.75
64792;BME280;51226;47.504;19.074;2023-02-22T12:50:55;100248.06;;;13.68;54.89
64792;BME280;51226;47.504;19.074;2023-02-22T12:54:12;100243.72;;;13.70;55.02
64792;BME280;51226;47.504;19.074;2023-02-22T12:57:41;100236.00;;;13.77;55.23
64792;BME280;51226;47.504;19.074;2023-02-22T13:00:47;100229.22;;;13.86;54.68
64792;BME280;51226;47.504;19.074;2023-02-22T13:03:53;100230.25;;;13.95;54.49
64792;BME280;51226;47.504;19.074;2023-02-22T13:10:16;100226.59;;;13.86;54.12
64792;BME280;51226;47.504;19.074;2023-02-22T13:20:28;100225.47;;;13.37;56.48
64792;BME280;51226;47.504;19.074;2023-02-22T13:23:43;100224.09;;;13.51;55.78
64792;BME280;51226;47.504;19.074;2023-02-22T13:27:05;100223.41;;;13.60;55.58
64792;BME280;51226;47.504;19.074;2023-02-22T13:30:26;100218.22;;;13.63;55.55
64792;BME280;51226;47.504;19.074;2023-02-22T13:40:19;100215.34;;;13.90;54.49
64792;BME280;51226;47.504;19.074;2023-02-22T13:47:39;100214.84;;;13.69;55.76
64792;BME280;51226;47.504;19.074;2023-02-22T13:51:06;100215.91;;;13.77;55.28
64792;BME280;51226;47.504;19.074;2023-02-22T13:54:36;100220.88;;;13.65;55.45
64792;BME280;51226;47.504;19.074;2023-02-22T13:57:47;100224.75;;;13.44;56.77
64792;BME280;51226;47.504;19.074;2023-02-22T14:00:54;100223.16;;;13.51;56.55
64792;BME280;51226;47.504;19.074;2023-02-22T14:04:21;100223.50;;;13.65;55.91
64792;BME280;51226;47.504;19.074;2023-02-22T14:07:44;100221.81;;;13.67;55.83
64792;BME280;51226;47.504;19.074;2023-02-22T14:10:57;100222.56;;;13.63;56.12
64792;BME280;51226;47.504;19.074;2023-02-22T14:17:19;100221.47;;;13.51;56.92
64792;BME280;51226;47.504;19.074;2023-02-22T14:20:31;100223.13;;;13.49;56.98
64792;BME280;51226;47.504;19.074;2023-02-22T14:26:59;100212.03;;;13.61;56.55
64792;BME280;51226;47.504;19.074;2023-02-22T14:30:03;100213.47;;;13.47;57.36
64792;BME280;51226;47.504;19.074;2023-02-22T14:37:02;100212.88;;;13.59;56.92
64792;BME280;51226;47.504;19.074;2023-02-22T14:40:21;100217.13;;;13.53;57.49
64792;BME280;51226;47.504;19.074;2023-02-22T14:43:27;100221.41;;;13.50;57.83
64792;BME280;51226;47.504;19.074;2023-02-22T14:46:33;100217.84;;;13.48;57.72
64792;BME280;51226;47.504;19.074;2023-02-22T14:49:42;100215.56;;;13.62;57.21
64792;BME280;51226;47.504;19.074;2023-02-22T14:52:59;100219.22;;;13.68;56.75
64792;BME280;51226;47.504;19.074;2023-02-22T14:56:06;100208.22;;;13.45;57.66
64792;BME280;51226;47.504;19.074;2023-02-22T15:02:19;100206.81;;;13.25;58.51
64792;BME280;51226;47.504;19.074;2023-02-22T15:05:28;100203.25;;;13.23;58.64
64792;BME280;51226;47.504;19.074;2023-02-22T15:08:32;100209.50;;;13.28;57.76
64792;BME280;51226;47.504;19.074;2023-02-22T15:11:36;100210.28;;;13.24;59.07
64792;BME280;51226;47.504;19.074;2023-02-22T15:14:39;100196.69;;;13.39;57.73
64792;BME280;51226;47.504;19.074;2023-02-22T15:17:44;100208.62;;;13.27;58.44
64792;BME280;51226;47.504;19.074;2023-02-22T15:20:50;100204.28;;;13.29;57.86
64792;BME280;51226;47.504;19.074;2023-02-22T15:24:05;100200.63;;;13.23;58.04
64792;BME280;51226;47.504;19.074;2023-02-22T15:27:14;100201.53;;;13.23;57.99
64792;BME280;51226;47.504;19.074;2023-02-22T15:30:27;100204.13;;;13.22;57.96
64792;BME280;51226;47.504;19.074;2023-02-22T15:33:31;100201.50;;;13.22;57.25
64792;BME280;51226;47.504;19.074;2023-02-22T15:36:41;100204.16;;;13.23;58.00
64792;BME280;51226;47.504;19.074;2023-02-22T15:39:44;100200.63;;;13.23;59.21
64792;BME280;51226;47.504;19.074;2023-02-22T15:42:51;100204.13;;;13.22;58.92
64792;BME280;51226;47.504;19.074;2023-02-22T15:45:56;100196.22;;;13.20;59.51
64792;BME280;51226;47.504;19.074;2023-02-22T15:49:26;100197.09;;;13.21;59.16
64792;BME280;51226;47.504;19.074;2023-02-22T15:52:30;100193.56;;;13.19;59.06
64792;BME280;51226;47.504;19.074;2023-02-22T15:55:38;100193.41;;;13.12;59.03
64792;BME280;51226;47.504;19.074;2023-02-22T15:58:45;100197.78;;;13.12;59.30
64792;BME280;51226;47.504;19.074;2023-02-22T16:01:49;100191.59;;;13.08;58.59
64792;BME280;51226;47.504;19.074;2023-02-22T16:04:58;100195.88;;;13.06;58.82
64792;BME280;51226;47.504;19.074;2023-02-22T16:08:02;100199.56;;;13.14;58.49
64792;BME280;51226;47.504;19.074;2023-02-22T16:11:26;100196.91;;;13.11;58.67
64792;BME280;51226;47.504;19.074;2023-02-22T16:17:39;100203.56;;;12.98;58.28
64792;BME280;51226;47.504;19.074;2023-02-22T16:21:10;100194.03;;;13.02;57.45
64792;BME280;51226;47.504;19.074;2023-02-22T16:24:25;100198.16;;;12.92;57.61
64792;BME280;51226;47.504;19.074;2023-02-22T16:27:28;100206.75;;;12.87;57.06
64792;BME280;51226;47.504;19.074;2023-02-22T16:30:36;100210.19;;;12.86;57.22
64792;BME280;51226;47.504;19.074;2023-02-22T16:33:41;100208.31;;;12.80;57.45
64792;BME280;51226;47.504;19.074;2023-02-22T16:36:48;100210.84;;;12.77;57.41
64792;BME280;51226;47.504;19.074;2023-02-22T16:39:53;100211.59;;;12.71;57.67
64792;BME280;51226;47.504;19.074;2023-02-22T16:42:58;100215.81;;;12.68;57.52
64792;BME280;51226;47.504;19.074;2023-02-22T16:46:03;100214.00;;;12.64;58.33
64792;BME280;51226;47.504;19.074;2023-02-22T16:49:10;100217.34;;;12.59;60.14
64792;BME280;51226;47.504;19.074;2023-02-22T16:52:13;100226.16;;;12.62;61.14
64792;BME280;51226;47.504;19.074;2023-02-22T16:55:17;100227.63;;;12.52;61.65
64792;BME280;51226;47.504;19.074;2023-02-22T16:58:22;100234.50;;;12.48;61.98
64792;BME280;51226;47.504;19.074;2023-02-22T17:01:29;100232.69;;;12.46;62.44
64792;BME280;51226;47.504;19.074;2023-02-22T17:04:36;100236.06;;;12.41;62.80
64792;BME280;51226;47.504;19.074;2023-02-22T17:07:41;100235.19;;;12.42;62.83
64792;BME280;51226;47.504;19.074;2023-02-22T17:10:44;100233.34;;;12.38;62.82
64792;BME280;51226;47.504;19.074;2023-02-22T17:13:48;100238.41;;;12.32;63.01
64792;BME280;51226;47.504;19.074;2023-02-22T17:16:53;100236.66;;;12.31;63.61
64792;BME280;51226;47.504;19.074;2023-02-22T17:19:56;100238.22;;;12.26;63.53
64792;BME280;51226;47.504;19.074;2023-02-22T17:23:04;100237.25;;;12.22;63.64
64792;BME280;51226;47.504;19.074;2023-02-22T17:26:08;100238.84;;;12.17;63.84
64792;BME280;51226;47.504;19.074;2023-02-22T17:29:10;100233.53;;;12.14;64.13
64792;BME280;51226;47.504;19.074;2023-02-22T17:32:15;100243.00;;;12.11;64.29
64792;BME280;51226;47.504;19.074;2023-02-22T17:35:19;100240.31;;;12.08;63.65
64792;BME280;51226;47.504;19.074;2023-02-22T17:38:24;100241.16;;;12.07;64.24
64792;BME280;51226;47.504;19.074;2023-02-22T17:41:30;100235.06;;;12.08;64.38
64792;BME280;51226;47.504;19.074;2023-02-22T17:44:33;100230.56;;;12.02;64.52
64792;BME280;51226;47.504;19.074;2023-02-22T17:47:36;100229.53;;;11.97;65.07
64792;BME280;51226;47.504;19.074;2023-02-22T17:50:42;100236.41;;;11.93;65.12
64792;BME280;51226;47.504;19.074;2023-02-22T17:53:45;100233.63;;;11.89;65.40
64792;BME280;51226;47.504;19.074;2023-02-22T17:56:48;100233.47;;;11.84;65.67
64792;BME280;51226;47.504;19.074;2023-02-22T17:59:51;100243.09;;;11.85;65.63
64792;BME280;51226;47.504;19.074;2023-02-22T18:02:59;100236.84;;;11.80;65.69